createdAt,value
2018-09-21T00:00:32.631Z,20.41
2018-09-21T00:03:02.704Z,20.23
2018-09-21T00:05:32.840Z,20.36
2018-09-21T00:08:02.942Z,20.44
2018-09-21T00:10:33.096Z,20.52
2018-09-21T00:13:03.190Z,20.49
2018-09-21T00:15:33.326Z,20.48
2018-09-21T00:18:03.355Z,20.51
2018-09-21T00:20:33.467Z,20.37
2018-09-21T00:23:03.532Z,20.47
2018-09-21T00:25:33.685Z,20.37
2018-09-21T00:28:03.830Z,20.37
2018-09-21T00:30:33.970Z,20.30
2018-09-21T00:33:04.123Z,20.24
2018-09-21T00:35:34.182Z,20.16
2018-09-21T00:38:04.338Z,20.27
2018-09-21T00:40:34.504Z,20.42
2018-09-21T00:43:04.676Z,20.62
2018-09-21T00:45:34.789Z,20.50
2018-09-21T00:48:04.870Z,20.43
2018-09-21T00:50:35.022Z,20.48
2018-09-21T00:53:05.122Z,20.62
2018-09-21T00:55:35.239Z,20.54
2018-09-21T00:58:05.369Z,20.67
2018-09-21T01:00:35.491Z,20.71
2018-09-21T01:03:05.560Z,20.58
2018-09-21T01:05:35.711Z,20.48
2018-09-21T01:08:05.876Z,20.52
2018-09-21T01:10:35.996Z,20.55
2018-09-21T01:13:06.083Z,20.52
2018-09-21T01:15:36.217Z,20.59
2018-09-21T01:18:06.397Z,20.47
2018-09-21T01:20:36.515Z,20.42
2018-09-21T01:23:06.695Z,20.38
2018-09-21T01:25:36.773Z,20.56
2018-09-21T01:28:06.837Z,20.45
2018-09-21T01:30:36.885Z,20.34
2018-09-21T01:33:06.542Z,20.34
2018-09-21T01:35:36.925Z,20.32
2018-09-21T01:38:07.202Z,20.21
2018-09-21T01:40:37.347Z,20.18
2018-09-21T01:43:07.530Z,20.11
2018-09-21T01:45:37.640Z,20.21
2018-09-21T01:48:07.771Z,20.05
2018-09-21T01:50:37.871Z,20.07
2018-09-21T01:53:07.976Z,20.00
2018-09-21T01:55:38.225Z,20.01
2018-09-21T01:58:08.328Z,20.12
2018-09-21T02:00:38.492Z,20.11
2018-09-21T02:03:08.658Z,20.23
2018-09-21T02:05:38.794Z,20.20
2018-09-21T02:08:08.874Z,20.28
2018-09-21T02:10:39.029Z,20.31
2018-09-21T02:13:09.241Z,20.29
2018-09-21T02:15:39.334Z,20.12
2018-09-21T02:18:09.496Z,20.33
2018-09-21T02:20:39.630Z,20.25
2018-09-21T02:23:09.725Z,20.29
2018-09-21T02:25:39.798Z,20.10
2018-09-21T02:28:09.852Z,20.06
2018-09-21T02:30:40.056Z,20.28
2018-09-21T02:33:10.148Z,20.43
2018-09-21T02:35:40.330Z,20.49
2018-09-21T02:38:10.389Z,20.58
2018-09-21T02:40:40.518Z,20.50
2018-09-21T02:43:10.662Z,20.29
2018-09-21T02:45:40.739Z,20.41
2018-09-21T02:48:10.846Z,20.26
2018-09-21T02:50:40.959Z,20.28
2018-09-21T02:53:11.060Z,20.27
2018-09-21T02:55:41.152Z,20.20
2018-09-21T02:58:11.215Z,20.15
2018-09-21T03:00:41.532Z,20.13
2018-09-21T03:03:11.596Z,20.13
2018-09-21T03:05:41.797Z,20.12
2018-09-21T03:08:11.894Z,20.20
2018-09-21T03:10:41.993Z,20.23
2018-09-21T03:13:12.057Z,20.28
2018-09-21T03:15:42.143Z,20.36
2018-09-21T03:18:12.198Z,20.42
2018-09-21T03:20:42.319Z,20.49
2018-09-21T03:23:12.435Z,20.48
2018-09-21T03:25:42.516Z,20.45
2018-09-21T03:28:12.535Z,20.55
2018-09-21T03:30:42.638Z,20.59
2018-09-21T03:33:12.676Z,20.64
2018-09-21T03:35:42.753Z,20.62
2018-09-21T03:38:12.823Z,20.59
2018-09-21T03:40:42.995Z,20.67
2018-09-21T03:43:13.124Z,20.80
2018-09-21T03:45:43.243Z,20.86
2018-09-21T03:48:13.344Z,20.77
2018-09-21T03:50:43.418Z,20.87
2018-09-21T03:53:13.505Z,20.91
2018-09-21T03:55:43.608Z,20.87
2018-09-21T03:58:13.651Z,20.83
2018-09-21T04:00:43.722Z,20.89
2018-09-21T04:03:13.785Z,20.84
2018-09-21T04:05:43.952Z,20.84
2018-09-21T04:08:14.045Z,20.86
2018-09-21T04:10:44.165Z,21.02
2018-09-21T04:13:14.245Z,21.10
2018-09-21T04:15:44.416Z,21.15
2018-09-21T04:18:14.528Z,21.13
2018-09-21T04:20:44.644Z,21.19
2018-09-21T04:23:14.741Z,21.33
2018-09-21T04:25:44.852Z,21.25
2018-09-21T04:28:14.912Z,21.37
2018-09-21T04:30:45.022Z,21.36
2018-09-21T04:33:15.133Z,21.32
2018-09-21T04:35:45.253Z,21.36
2018-09-21T04:38:15.311Z,21.32
2018-09-21T04:40:45.399Z,21.38
2018-09-21T04:43:15.608Z,21.44
2018-09-21T04:45:45.852Z,21.31
2018-09-21T04:48:16.129Z,21.31
2018-09-21T04:50:46.247Z,21.34
2018-09-21T04:53:16.352Z,21.34
2018-09-21T04:55:46.499Z,21.44
2018-09-21T04:58:16.563Z,21.41
2018-09-21T05:00:46.680Z,21.39
2018-09-21T05:03:16.716Z,21.38
2018-09-21T05:05:46.838Z,21.33
2018-09-21T05:08:16.918Z,21.35
2018-09-21T05:10:47.094Z,21.34
2018-09-21T05:13:17.192Z,21.16
2018-09-21T05:15:47.399Z,21.20
2018-09-21T05:18:17.536Z,21.26
2018-09-21T05:20:47.688Z,21.22
2018-09-21T05:23:17.768Z,21.19
2018-09-21T05:25:47.914Z,21.23
2018-09-21T05:28:18.037Z,21.23
2018-09-21T05:30:48.135Z,21.25
2018-09-21T05:33:18.275Z,21.17
2018-09-21T05:35:48.401Z,21.13
2018-09-21T05:38:18.468Z,21.06
2018-09-21T05:40:48.543Z,21.05
2018-09-21T05:43:18.610Z,21.11
2018-09-21T05:45:48.724Z,21.17
2018-09-21T05:48:18.832Z,21.20
2018-09-21T05:50:49.135Z,21.26
2018-09-21T05:53:19.263Z,21.20
2018-09-21T05:55:49.601Z,21.22
2018-09-21T05:58:19.727Z,21.34
2018-09-21T06:00:49.899Z,21.38
2018-09-21T06:03:20.091Z,21.40
2018-09-21T06:05:51.358Z,21.57
2018-09-21T06:08:21.436Z,21.61
2018-09-21T06:10:51.534Z,21.67
2018-09-21T06:13:21.633Z,21.68
2018-09-21T06:15:51.790Z,21.67
2018-09-21T06:18:21.855Z,21.76
2018-09-21T06:20:52.007Z,21.81
2018-09-21T06:23:22.084Z,21.79
2018-09-21T06:25:52.176Z,21.82
2018-09-21T06:28:22.235Z,21.91
2018-09-21T06:30:52.378Z,21.99
2018-09-21T06:33:22.532Z,22.02
2018-09-21T06:35:52.639Z,22.00
2018-09-21T06:38:22.775Z,22.00
2018-09-21T06:40:53.320Z,21.96
2018-09-21T06:43:23.422Z,22.00
2018-09-21T06:45:53.545Z,21.99
2018-09-21T06:48:23.651Z,21.94
2018-09-21T06:50:53.822Z,21.89
2018-09-21T06:53:23.870Z,21.83
2018-09-21T06:55:53.954Z,21.83
2018-09-21T06:58:24.022Z,21.79
2018-09-21T07:00:54.276Z,21.83
2018-09-21T07:03:24.360Z,21.85
2018-09-21T07:05:54.610Z,21.84
2018-09-21T07:08:24.709Z,21.78
2018-09-21T07:10:54.816Z,21.91
2018-09-21T07:13:24.916Z,21.91
2018-09-21T07:15:55.217Z,21.93
2018-09-21T07:18:25.295Z,22.05
2018-09-21T07:20:55.501Z,22.07
2018-09-21T07:23:25.663Z,22.00
2018-09-21T07:25:55.865Z,21.96
2018-09-21T07:28:26.678Z,21.90
2018-09-21T07:30:56.857Z,21.86
2018-09-21T07:33:27.106Z,21.81
2018-09-21T07:35:57.351Z,21.71
2018-09-21T07:38:27.472Z,21.64
2018-09-21T07:40:57.684Z,21.57
2018-09-21T07:43:27.805Z,21.57
2018-09-21T07:45:57.965Z,21.55
2018-09-21T07:48:28.041Z,21.60
2018-09-21T07:50:58.201Z,21.55
2018-09-21T07:53:28.492Z,21.54
2018-09-21T07:55:58.639Z,21.56
2018-09-21T07:58:28.806Z,21.55
2018-09-21T08:00:58.984Z,21.58
2018-09-21T08:03:29.059Z,21.64
2018-09-21T08:05:59.231Z,21.64
2018-09-21T08:08:29.705Z,21.61
2018-09-21T08:10:59.866Z,21.59
2018-09-21T08:13:29.984Z,21.56
2018-09-21T08:16:05.052Z,21.62
2018-09-21T08:18:36.053Z,21.59
2018-09-21T08:21:06.276Z,21.57
2018-09-21T08:23:36.467Z,21.65
2018-09-21T08:26:06.763Z,21.64
2018-09-21T08:28:36.994Z,21.63
2018-09-21T08:31:07.236Z,21.61
2018-09-21T08:33:37.345Z,21.55
2018-09-21T08:36:07.482Z,21.30
2018-09-21T08:38:38.509Z,20.74
2018-09-21T08:41:08.860Z,19.94
2018-09-21T08:43:39.015Z,19.37
2018-09-21T08:46:09.135Z,18.92
2018-09-21T08:48:39.206Z,18.37
2018-09-21T08:51:09.347Z,17.73
2018-09-21T08:53:39.551Z,16.52
2018-09-21T08:56:09.785Z,15.52
2018-09-21T08:58:39.958Z,15.06
2018-09-21T09:01:10.115Z,14.64
2018-09-21T09:03:40.219Z,14.45
2018-09-21T09:06:10.477Z,14.21
2018-09-21T09:08:40.603Z,14.22
2018-09-21T09:11:10.808Z,14.09
2018-09-21T09:13:40.918Z,14.10
2018-09-21T09:16:11.087Z,14.21
2018-09-21T09:18:41.155Z,14.28
2018-09-21T09:21:11.282Z,14.42
2018-09-21T09:23:41.450Z,14.43
2018-09-21T09:26:11.505Z,14.33
2018-09-21T09:28:41.608Z,14.18
2018-09-21T09:31:11.745Z,14.29
2018-09-21T09:33:41.830Z,14.24
2018-09-21T09:36:11.912Z,14.20
2018-09-21T09:38:42.141Z,14.31
2018-09-21T09:41:12.309Z,14.51
2018-09-21T09:43:42.401Z,14.56
2018-09-21T09:46:12.479Z,14.71
2018-09-21T09:48:42.573Z,14.72
2018-09-21T09:51:12.768Z,14.70
2018-09-21T09:53:43.016Z,14.64
2018-09-21T09:56:13.139Z,14.74
2018-09-21T09:58:43.489Z,14.94
2018-09-21T10:01:13.574Z,14.92
2018-09-21T10:03:43.757Z,14.98
2018-09-21T10:06:13.884Z,14.90
2018-09-21T10:08:44.013Z,14.89
2018-09-21T10:11:14.092Z,15.03
2018-09-21T10:13:44.149Z,15.05
2018-09-21T10:16:14.290Z,15.21
2018-09-21T10:18:44.361Z,15.45
2018-09-21T10:21:14.611Z,15.45
2018-09-21T10:23:44.725Z,15.83
2018-09-21T10:26:14.766Z,16.01
2018-09-21T10:28:44.962Z,16.25
2018-09-21T10:31:15.023Z,16.35
2018-09-21T10:33:45.308Z,16.34
2018-09-21T10:36:15.394Z,16.64
2018-09-21T10:38:45.530Z,16.58
2018-09-21T10:41:15.788Z,16.67
2018-09-21T10:43:46.126Z,16.51
2018-09-21T10:46:16.272Z,16.40
2018-09-21T10:48:46.417Z,16.31
2018-09-21T10:51:16.582Z,16.56
2018-09-21T10:53:46.675Z,16.77
2018-09-21T10:56:16.796Z,16.99
2018-09-21T10:58:46.969Z,17.24
2018-09-21T11:01:17.092Z,17.04
2018-09-21T11:03:47.253Z,17.04
2018-09-21T11:06:17.538Z,17.03
2018-09-21T11:08:47.673Z,17.20
2018-09-21T11:11:17.739Z,17.18
2018-09-21T11:13:47.847Z,17.20
2018-09-21T11:16:18.018Z,17.24
2018-09-21T11:18:48.086Z,17.24
2018-09-21T11:21:18.219Z,17.33
2018-09-21T11:23:48.508Z,17.59
2018-09-21T11:26:18.595Z,17.84
2018-09-21T11:28:48.675Z,18.39
2018-09-21T11:31:18.743Z,18.45
2018-09-21T11:33:48.910Z,18.53
2018-09-21T11:36:19.004Z,18.66
2018-09-21T11:38:49.188Z,18.86
2018-09-21T11:41:19.733Z,18.64
2018-09-21T11:43:49.837Z,18.27
2018-09-21T11:46:19.925Z,18.58
2018-09-21T11:48:50.035Z,18.69
2018-09-21T11:51:20.199Z,18.95
2018-09-21T11:53:50.238Z,18.69
2018-09-21T11:56:20.348Z,18.14
2018-09-21T11:58:50.502Z,17.65
2018-09-21T12:01:23.656Z,17.36
2018-09-21T12:03:54.075Z,17.08
2018-09-21T12:06:24.149Z,17.26
2018-09-21T12:08:54.207Z,17.43
2018-09-21T12:11:24.299Z,17.79
2018-09-21T12:13:54.463Z,17.69
2018-09-21T12:16:24.563Z,17.47
2018-09-21T12:18:54.599Z,17.29
2018-09-21T12:21:24.697Z,17.25
2018-09-21T12:23:54.865Z,17.28
2018-09-21T12:26:25.009Z,16.90
2018-09-21T12:28:55.132Z,16.81
2018-09-21T12:31:25.264Z,16.59
2018-09-21T12:33:55.379Z,16.71
2018-09-21T12:36:25.496Z,16.65
2018-09-21T12:38:55.576Z,16.73
2018-09-21T12:41:25.700Z,16.70
2018-09-21T12:43:55.846Z,16.51
2018-09-21T12:46:29.366Z,16.46
2018-09-21T12:49:02.539Z,16.47
2018-09-21T12:51:33.583Z,16.72
2018-09-21T12:54:03.677Z,16.79
2018-09-21T12:56:33.991Z,16.79
2018-09-21T12:59:04.165Z,16.97
2018-09-21T13:01:34.325Z,16.90
2018-09-21T13:04:04.480Z,17.14
2018-09-21T13:06:34.664Z,17.32
2018-09-21T13:09:05.661Z,17.39
2018-09-21T13:11:35.846Z,17.42
2018-09-21T13:14:06.125Z,17.22
2018-09-21T13:16:36.319Z,17.19
2018-09-21T13:19:06.518Z,16.93
2018-09-21T13:21:36.708Z,16.73
2018-09-21T13:24:07.189Z,16.62
2018-09-21T13:26:37.424Z,16.61
2018-09-21T13:29:07.595Z,16.64
2018-09-21T13:31:37.778Z,16.88
2018-09-21T13:34:07.845Z,17.05
2018-09-21T13:36:38.032Z,17.15
2018-09-21T13:39:11.729Z,17.02
2018-09-21T13:41:41.891Z,17.25
2018-09-21T13:44:12.073Z,17.12
2018-09-21T13:46:42.258Z,16.96
2018-09-21T13:49:12.391Z,17.11
2018-09-21T13:51:42.470Z,17.14
2018-09-21T13:54:12.579Z,17.32
2018-09-21T13:56:42.731Z,17.42
2018-09-21T13:59:12.910Z,17.34
2018-09-21T14:01:43.015Z,17.07
2018-09-21T14:04:13.085Z,16.89
2018-09-21T14:06:43.214Z,16.64
2018-09-21T14:09:13.294Z,16.84
2018-09-21T14:11:43.390Z,16.86
2018-09-21T14:14:13.543Z,16.67
2018-09-21T14:16:43.629Z,16.56
2018-09-21T14:19:13.807Z,16.48
2018-09-21T14:21:43.906Z,16.20
2018-09-21T14:24:14.151Z,15.33
2018-09-21T14:26:44.372Z,14.48
2018-09-21T14:29:14.463Z,14.07
2018-09-21T14:31:44.607Z,13.84
2018-09-21T14:34:14.725Z,13.78
2018-09-21T14:36:44.787Z,13.99
2018-09-21T14:39:14.891Z,14.13
2018-09-21T14:41:45.062Z,14.02
2018-09-21T14:44:15.149Z,14.12
2018-09-21T14:46:45.307Z,14.23
2018-09-21T14:49:15.412Z,14.30
2018-09-21T14:51:45.557Z,14.44
2018-09-21T14:54:15.679Z,14.45
2018-09-21T14:56:45.800Z,14.30
2018-09-21T14:59:15.965Z,14.42
2018-09-21T15:01:46.179Z,14.34
2018-09-21T15:04:16.359Z,14.45
2018-09-21T15:06:46.684Z,14.71
2018-09-21T15:09:16.961Z,14.87
2018-09-21T15:11:47.330Z,15.45
2018-09-21T15:14:17.558Z,16.03
2018-09-21T15:16:47.753Z,16.32
2018-09-21T15:19:17.881Z,16.85
2018-09-21T15:21:48.198Z,16.91
2018-09-21T15:24:18.456Z,17.00
2018-09-21T15:26:48.620Z,17.15
2018-09-21T15:29:21.525Z,17.08
2018-09-21T15:31:51.688Z,16.91
2018-09-21T15:34:21.892Z,17.00
2018-09-21T15:36:52.127Z,16.92
2018-09-21T15:39:22.313Z,16.74
2018-09-21T15:41:52.724Z,16.78
2018-09-21T15:44:23.064Z,17.13
2018-09-21T15:46:53.298Z,17.11
2018-09-21T15:49:23.634Z,17.07
2018-09-21T15:51:53.909Z,16.50
2018-09-21T15:54:24.089Z,16.12
2018-09-21T15:56:54.300Z,15.85
2018-09-21T15:59:24.868Z,15.76
2018-09-21T16:01:55.091Z,15.84
2018-09-21T16:04:25.338Z,15.82
2018-09-21T16:06:55.567Z,15.63
2018-09-21T16:09:25.811Z,15.64
2018-09-21T16:11:56.059Z,15.72
2018-09-21T16:14:26.298Z,15.78
2018-09-21T16:16:56.600Z,15.79
2018-09-21T16:19:26.784Z,15.65
2018-09-21T16:21:57.006Z,15.85
2018-09-21T16:24:27.217Z,15.88
2018-09-21T16:26:57.395Z,15.91
2018-09-21T16:29:27.567Z,15.82
2018-09-21T16:31:57.679Z,15.63
2018-09-21T16:34:27.803Z,15.68
2018-09-21T16:36:57.953Z,15.65
2018-09-21T16:39:28.305Z,15.56
2018-09-21T16:41:58.376Z,15.53
2018-09-21T16:44:28.497Z,15.52
2018-09-21T16:46:59.485Z,15.41
2018-09-21T16:49:32.894Z,15.35
2018-09-21T16:52:05.052Z,15.30
2018-09-21T16:54:35.413Z,15.29
2018-09-21T16:57:07.638Z,15.32
2018-09-21T16:59:39.035Z,15.36
2018-09-21T17:02:19.975Z,15.33
2018-09-21T17:04:52.090Z,15.27
2018-09-21T17:07:23.797Z,15.16
2018-09-21T17:09:53.945Z,15.00
2018-09-21T17:12:24.083Z,14.96
2018-09-21T17:14:54.264Z,14.89
2018-09-21T17:17:24.488Z,14.84
2018-09-21T17:19:54.810Z,14.85
2018-09-21T17:22:25.022Z,14.83
2018-09-21T17:24:55.317Z,14.65
2018-09-21T17:27:25.489Z,14.52
2018-09-21T17:29:55.572Z,14.49
2018-09-21T17:32:25.669Z,14.57
2018-09-21T17:34:55.748Z,14.50
2018-09-21T17:37:25.933Z,14.63
2018-09-21T17:39:56.031Z,14.63
2018-09-21T17:42:26.259Z,14.54
2018-09-21T17:44:56.452Z,14.62
2018-09-21T17:47:26.604Z,14.66
2018-09-21T17:49:56.865Z,14.63
2018-09-21T17:52:27.020Z,14.65
2018-09-21T17:54:57.194Z,14.59
2018-09-21T17:57:27.464Z,14.60
2018-09-21T17:59:57.595Z,14.57
2018-09-21T18:02:27.763Z,14.44
2018-09-21T18:04:57.984Z,14.33
2018-09-21T18:07:28.115Z,14.25
2018-09-21T18:09:58.224Z,14.17
2018-09-21T18:12:28.363Z,14.16
2018-09-21T18:14:58.500Z,14.29
2018-09-21T18:17:28.668Z,14.64
2018-09-21T18:19:58.798Z,14.61
2018-09-21T18:22:28.964Z,14.78
2018-09-21T18:24:59.268Z,14.73
2018-09-21T18:27:29.562Z,14.51
2018-09-21T18:29:59.910Z,14.29
2018-09-21T18:32:30.100Z,14.13
2018-09-21T18:35:00.356Z,13.95
2018-09-21T18:37:30.617Z,13.96
2018-09-21T18:40:01.480Z,13.86
2018-09-21T18:42:31.745Z,13.79
2018-09-21T18:45:01.955Z,13.85
2018-09-21T18:47:32.166Z,13.84
2018-09-21T18:50:02.447Z,13.80
2018-09-21T18:52:32.604Z,13.80
2018-09-21T18:55:02.727Z,13.84
2018-09-21T18:57:32.813Z,13.77
2018-09-21T19:00:03.050Z,13.67
2018-09-21T19:02:33.136Z,13.65
2018-09-21T19:05:03.399Z,13.59
2018-09-21T19:07:33.609Z,13.47
2018-09-21T19:10:03.863Z,13.42
2018-09-21T19:12:34.063Z,13.48
2018-09-21T19:15:04.225Z,13.60
2018-09-21T19:17:34.546Z,13.68
2018-09-21T19:20:07.843Z,13.79
2018-09-21T19:22:37.989Z,13.88
2018-09-21T19:25:08.148Z,13.85
2018-09-21T19:27:38.319Z,13.81
2018-09-21T19:30:08.494Z,13.86
2018-09-21T19:32:38.642Z,13.95
2018-09-21T19:35:08.810Z,14.16
2018-09-21T19:37:39.004Z,14.17
2018-09-21T19:40:09.205Z,14.04
2018-09-21T19:42:39.547Z,13.79
2018-09-21T19:45:09.969Z,13.59
2018-09-21T19:47:40.063Z,13.48
2018-09-21T19:50:10.191Z,13.43
2018-09-21T19:52:40.322Z,13.43
2018-09-21T19:55:10.437Z,13.30
2018-09-21T19:57:42.143Z,13.32
2018-09-21T20:00:12.356Z,13.23
2018-09-21T20:02:42.498Z,13.23
2018-09-21T20:05:12.590Z,13.18
2018-09-21T20:07:42.741Z,13.17
2018-09-21T20:10:12.907Z,13.20
2018-09-21T20:12:43.240Z,13.23
2018-09-21T20:15:13.357Z,13.23
2018-09-21T20:17:43.519Z,13.30
2018-09-21T20:20:13.624Z,13.21
2018-09-21T20:22:43.881Z,13.28
2018-09-21T20:25:13.997Z,13.42
2018-09-21T20:27:44.143Z,13.49
2018-09-21T20:30:19.301Z,13.61
2018-09-21T20:32:56.496Z,13.74
2018-09-21T20:35:26.642Z,13.85
2018-09-21T20:37:56.832Z,13.93
2018-09-21T20:40:26.949Z,13.87
2018-09-21T20:42:57.281Z,13.90
2018-09-21T20:45:27.447Z,13.98
2018-09-21T20:47:57.721Z,14.17
2018-09-21T20:50:27.802Z,14.20
2018-09-21T20:52:57.916Z,14.16
2018-09-21T20:55:27.972Z,14.07
2018-09-21T20:57:58.106Z,14.04
2018-09-21T21:00:28.310Z,13.96
2018-09-21T21:02:58.431Z,13.92
2018-09-21T21:05:28.617Z,13.98
2018-09-21T21:07:58.679Z,13.96
2018-09-21T21:10:29.433Z,13.91
2018-09-21T21:13:00.472Z,13.88
2018-09-21T21:15:30.533Z,13.87
2018-09-21T21:18:11.910Z,13.94
2018-09-21T21:20:44.179Z,14.02
2018-09-21T21:23:21.654Z,14.09
2018-09-21T21:26:03.995Z,14.10
2018-09-21T21:28:46.796Z,14.14
2018-09-21T21:31:17.507Z,14.06
2018-09-21T21:33:49.328Z,14.10
2018-09-21T21:36:21.188Z,13.94
2018-09-21T21:38:51.726Z,13.82
2018-09-21T21:41:27.862Z,13.84
2018-09-21T21:43:58.191Z,13.96
2018-09-21T21:46:28.275Z,13.94
2018-09-21T21:48:59.947Z,13.93
2018-09-21T21:51:30.154Z,13.89
2018-09-21T21:54:01.818Z,13.87
2018-09-21T21:56:33.986Z,13.71
2018-09-21T21:59:04.172Z,13.69
2018-09-21T22:01:39.897Z,13.72
2018-09-21T22:04:10.063Z,13.71
2018-09-21T22:06:40.269Z,13.78
2018-09-21T22:09:11.710Z,13.90
2018-09-21T22:11:47.034Z,13.89
2018-09-21T22:14:17.203Z,13.86
2018-09-21T22:16:47.477Z,13.78
2018-09-21T22:19:17.882Z,13.78
2018-09-21T22:21:48.061Z,13.89
2018-09-21T22:24:18.225Z,13.85
2018-09-21T22:26:48.295Z,13.82
2018-09-21T22:29:18.402Z,13.74
2018-09-21T22:31:51.147Z,13.54
2018-09-21T22:34:24.063Z,13.41
2018-09-21T22:36:56.131Z,13.34
2018-09-21T22:39:26.453Z,13.14
2018-09-21T22:42:00.210Z,12.79
2018-09-21T22:44:31.699Z,12.38
2018-09-21T22:47:02.091Z,12.09
2018-09-21T22:49:32.177Z,11.94
2018-09-21T22:52:02.270Z,11.79
2018-09-21T22:54:32.416Z,11.72
2018-09-21T22:57:02.478Z,11.59
2018-09-21T22:59:32.605Z,11.58
2018-09-21T23:02:02.760Z,11.36
2018-09-21T23:04:33.082Z,11.24
2018-09-21T23:07:03.268Z,11.27
2018-09-21T23:09:35.340Z,11.04
2018-09-21T23:12:07.153Z,10.96
2018-09-21T23:14:37.326Z,10.97
2018-09-21T23:17:07.452Z,10.98
2018-09-21T23:19:38.837Z,11.08
2018-09-21T23:22:09.071Z,10.94
2018-09-21T23:24:39.191Z,10.87
2018-09-21T23:27:09.311Z,10.91
2018-09-21T23:29:39.396Z,10.84
2018-09-21T23:32:09.482Z,10.84
2018-09-21T23:34:39.595Z,10.98
2018-09-21T23:37:09.730Z,10.98
2018-09-21T23:39:39.925Z,11.01
2018-09-21T23:42:10.058Z,11.07
2018-09-21T23:44:40.244Z,11.02
2018-09-21T23:47:10.370Z,11.15
2018-09-21T23:49:40.544Z,11.15
2018-09-21T23:52:13.613Z,11.12
2018-09-21T23:54:43.774Z,11.10
2018-09-21T23:57:13.971Z,10.95
2018-09-21T23:59:44.039Z,10.94
